This is the latest recevied weather packets stored in our database for station/object 9A3SWO. If no packets are shown the sender has not sent any weather packets the latest 10 day(s).
| Time | Temp. | Humidity | Pressure | Rain* | Wind** | Luminosity | Snow |
|---|---|---|---|---|---|---|---|
| 1787817500 | 28.33° C | 50% | 1017.8 hPa | - | - | - | - |
| 1787816897 | 28.33° C | 49% | 1017.8 hPa | - | - | - | - |
| 1787816297 | 28.33° C | 49% | 1018 hPa | - | - | - | - |
| 1787815697 | 27.78° C | 50% | 1018.1 hPa | - | - | - | - |
| 1787815097 | 27.78° C | 50% | 1018.1 hPa | - | - | - | - |
| 1787814497 | 27.78° C | 50% | 1018 hPa | - | - | - | - |
| 1787813897 | 27.78° C | 50% | 1018.2 hPa | - | - | - | - |
| 1787813297 | 27.22° C | 50% | 1018.1 hPa | - | - | - | - |
| 1787812698 | 27.22° C | 51% | 1018 hPa | - | - | - | - |
| 1787812097 | 27.22° C | 51% | 1017.9 hPa | - | - | - | - |
| 1787811497 | 26.67° C | 51% | 1018.1 hPa | - | - | - | - |
| 1787810897 | 26.67° C | 52% | 1018 hPa | - | - | - | - |
| 1787810297 | 26.11° C | 52% | 1018 hPa | - | - | - | - |
| 1787809698 | 26.11° C | 53% | 1018 hPa | - | - | - | - |
| 1787809097 | 25.56° C | 55% | 1017.9 hPa | - | - | - | - |
| 1787808498 | 24.44° C | 58% | 1018 hPa | - | - | - | - |
| 1787807896 | 24.44° C | 57% | 1018 hPa | - | - | - | - |
| 1787807297 | 23.89° C | 58% | 1018 hPa | - | - | - | - |
| 1787806696 | 23.89° C | 58% | 1018.2 hPa | - | - | - | - |
| 1787806097 | 23.33° C | 60% | 1018.2 hPa | - | - | - | - |
| 1787805497 | 21.67° C | 66% | 1018.4 hPa | - | - | - | - |
| 1787804896 | 21.11° C | 66% | 1018.1 hPa | - | - | - | - |
| 1787804296 | 21.11° C | 66% | 1018 hPa | - | - | - | - |
| 1787803697 | 21.67° C | 65% | 1018 hPa | - | - | - | - |
| 1787803096 | 21.67° C | 65% | 1018 hPa | - | - | - | - |
* Rain since midnight (hover to see other rain measurements)
** Current wind speed in m/s (hover to see current wind gust speed)